sensor_id;sensor_type;location;lat;lon;timestamp;P1;durP1;ratioP1;P2;durP2;ratioP2
249;SDS011;109;19.806;-70.704;2024-01-30T00:00:06;21.43;;;8.90;;
249;SDS011;109;19.806;-70.704;2024-01-30T00:02:33;16.73;;;9.63;;
249;SDS011;109;19.806;-70.704;2024-01-30T00:05:00;16.20;;;8.30;;
249;SDS011;109;19.806;-70.704;2024-01-30T00:07:26;15.60;;;8.90;;
249;SDS011;109;19.806;-70.704;2024-01-30T00:09:52;12.03;;;7.30;;
249;SDS011;109;19.806;-70.704;2024-01-30T00:12:19;15.63;;;7.17;;
249;SDS011;109;19.806;-70.704;2024-01-30T00:14:45;15.90;;;6.87;;
249;SDS011;109;19.806;-70.704;2024-01-30T00:17:12;14.23;;;6.90;;
249;SDS011;109;19.806;-70.704;2024-01-30T00:19:38;10.00;;;6.37;;
249;SDS011;109;19.806;-70.704;2024-01-30T00:22:04;13.90;;;6.27;;
249;SDS011;109;19.806;-70.704;2024-01-30T00:24:31;13.63;;;6.47;;
249;SDS011;109;19.806;-70.704;2024-01-30T00:26:57;13.10;;;6.17;;
249;SDS011;109;19.806;-70.704;2024-01-30T00:29:23;11.57;;;5.80;;
249;SDS011;109;19.806;-70.704;2024-01-30T00:31:55;11.20;;;6.00;;
249;SDS011;109;19.806;-70.704;2024-01-30T00:34:29;12.60;;;6.10;;
249;SDS011;109;19.806;-70.704;2024-01-30T00:37:02;11.13;;;6.20;;
249;SDS011;109;19.806;-70.704;2024-01-30T00:39:28;13.93;;;6.97;;
249;SDS011;109;19.806;-70.704;2024-01-30T00:42:01;11.30;;;5.80;;
249;SDS011;109;19.806;-70.704;2024-01-30T00:44:27;16.23;;;6.27;;
249;SDS011;109;19.806;-70.704;2024-01-30T00:47:00;8.77;;;5.70;;
249;SDS011;109;19.806;-70.704;2024-01-30T00:49:26;14.13;;;5.80;;
249;SDS011;109;19.806;-70.704;2024-01-30T00:51:59;11.43;;;5.33;;
249;SDS011;109;19.806;-70.704;2024-01-30T00:54:26;13.67;;;5.73;;
249;SDS011;109;19.806;-70.704;2024-01-30T00:56:59;10.03;;;5.80;;
249;SDS011;109;19.806;-70.704;2024-01-30T00:59:25;11.90;;;5.30;;
249;SDS011;109;19.806;-70.704;2024-01-30T01:01:58;16.67;;;5.73;;
249;SDS011;109;19.806;-70.704;2024-01-30T01:04:24;10.63;;;5.73;;
249;SDS011;109;19.806;-70.704;2024-01-30T01:06:59;9.40;;;5.50;;
249;SDS011;109;19.806;-70.704;2024-01-30T01:09:26;9.73;;;6.20;;
249;SDS011;109;19.806;-70.704;2024-01-30T01:11:59;15.67;;;8.13;;
249;SDS011;109;19.806;-70.704;2024-01-30T01:14:25;14.50;;;6.40;;
249;SDS011;109;19.806;-70.704;2024-01-30T01:16:58;10.80;;;6.00;;
249;SDS011;109;19.806;-70.704;2024-01-30T01:19:24;15.83;;;5.33;;
249;SDS011;109;19.806;-70.704;2024-01-30T01:21:57;10.93;;;5.60;;
249;SDS011;109;19.806;-70.704;2024-01-30T01:24:23;13.13;;;5.43;;
249;SDS011;109;19.806;-70.704;2024-01-30T01:26:56;13.77;;;5.90;;
249;SDS011;109;19.806;-70.704;2024-01-30T01:29:23;15.80;;;5.90;;
249;SDS011;109;19.806;-70.704;2024-01-30T01:32:01;10.30;;;5.90;;
249;SDS011;109;19.806;-70.704;2024-01-30T01:34:27;10.57;;;5.47;;
249;SDS011;109;19.806;-70.704;2024-01-30T01:37:00;10.57;;;5.10;;
249;SDS011;109;19.806;-70.704;2024-01-30T01:39:26;13.80;;;5.33;;
249;SDS011;109;19.806;-70.704;2024-01-30T01:41:59;11.53;;;5.10;;
249;SDS011;109;19.806;-70.704;2024-01-30T01:44:25;8.07;;;4.80;;
249;SDS011;109;19.806;-70.704;2024-01-30T01:46:59;8.77;;;5.70;;
249;SDS011;109;19.806;-70.704;2024-01-30T01:49:34;12.13;;;5.90;;
249;SDS011;109;19.806;-70.704;2024-01-30T01:52:21;9.70;;;5.70;;
249;SDS011;109;19.806;-70.704;2024-01-30T01:54:54;15.07;;;6.13;;
249;SDS011;109;19.806;-70.704;2024-01-30T01:57:20;35.30;;;8.33;;
249;SDS011;109;19.806;-70.704;2024-01-30T01:59:54;10.93;;;5.70;;
249;SDS011;109;19.806;-70.704;2024-01-30T02:02:20;12.80;;;5.27;;
249;SDS011;109;19.806;-70.704;2024-01-30T02:04:57;11.50;;;6.03;;
249;SDS011;109;19.806;-70.704;2024-01-30T02:07:24;10.53;;;5.97;;
249;SDS011;109;19.806;-70.704;2024-01-30T02:09:57;11.03;;;5.87;;
249;SDS011;109;19.806;-70.704;2024-01-30T02:12:23;13.00;;;5.80;;
249;SDS011;109;19.806;-70.704;2024-01-30T02:14:56;12.63;;;5.63;;
249;SDS011;109;19.806;-70.704;2024-01-30T02:17:23;10.73;;;6.30;;
249;SDS011;109;19.806;-70.704;2024-01-30T02:19:56;13.10;;;6.30;;
249;SDS011;109;19.806;-70.704;2024-01-30T02:22:22;11.70;;;6.70;;
249;SDS011;109;19.806;-70.704;2024-01-30T02:24:56;13.13;;;6.20;;
249;SDS011;109;19.806;-70.704;2024-01-30T02:27:22;11.57;;;6.27;;
249;SDS011;109;19.806;-70.704;2024-01-30T02:29:58;12.47;;;5.97;;
249;SDS011;109;19.806;-70.704;2024-01-30T02:32:41;14.37;;;6.20;;
249;SDS011;109;19.806;-70.704;2024-01-30T02:35:07;9.30;;;6.30;;
249;SDS011;109;19.806;-70.704;2024-01-30T02:37:40;13.30;;;6.90;;
249;SDS011;109;19.806;-70.704;2024-01-30T02:40:06;12.77;;;6.10;;
249;SDS011;109;19.806;-70.704;2024-01-30T02:42:40;16.67;;;7.03;;
249;SDS011;109;19.806;-70.704;2024-01-30T02:45:07;11.73;;;6.70;;
249;SDS011;109;19.806;-70.704;2024-01-30T02:47:41;19.93;;;7.83;;
249;SDS011;109;19.806;-70.704;2024-01-30T02:50:07;21.40;;;7.63;;
249;SDS011;109;19.806;-70.704;2024-01-30T02:52:41;16.23;;;8.07;;
249;SDS011;109;19.806;-70.704;2024-01-30T02:55:09;14.63;;;7.50;;
249;SDS011;109;19.806;-70.704;2024-01-30T02:57:43;15.83;;;8.20;;
249;SDS011;109;19.806;-70.704;2024-01-30T03:00:09;16.00;;;8.60;;
249;SDS011;109;19.806;-70.704;2024-01-30T03:02:43;14.37;;;7.63;;
249;SDS011;109;19.806;-70.704;2024-01-30T03:05:09;18.30;;;7.70;;
249;SDS011;109;19.806;-70.704;2024-01-30T03:07:42;11.57;;;7.87;;
249;SDS011;109;19.806;-70.704;2024-01-30T03:10:08;18.33;;;9.00;;
249;SDS011;109;19.806;-70.704;2024-01-30T03:12:42;16.00;;;10.20;;
249;SDS011;109;19.806;-70.704;2024-01-30T03:15:08;17.80;;;8.57;;
249;SDS011;109;19.806;-70.704;2024-01-30T03:17:42;12.97;;;8.40;;
249;SDS011;109;19.806;-70.704;2024-01-30T03:20:08;13.60;;;8.37;;
249;SDS011;109;19.806;-70.704;2024-01-30T03:22:42;19.13;;;8.00;;
249;SDS011;109;19.806;-70.704;2024-01-30T03:25:09;10.90;;;7.60;;
249;SDS011;109;19.806;-70.704;2024-01-30T03:27:42;14.07;;;8.60;;
249;SDS011;109;19.806;-70.704;2024-01-30T03:30:08;16.63;;;10.00;;
249;SDS011;109;19.806;-70.704;2024-01-30T03:32:47;16.83;;;9.60;;
249;SDS011;109;19.806;-70.704;2024-01-30T03:35:21;17.53;;;8.67;;
249;SDS011;109;19.806;-70.704;2024-01-30T03:37:47;18.77;;;9.37;;
249;SDS011;109;19.806;-70.704;2024-01-30T03:40:20;14.03;;;8.27;;
249;SDS011;109;19.806;-70.704;2024-01-30T03:42:46;12.63;;;8.77;;
249;SDS011;109;19.806;-70.704;2024-01-30T03:45:19;18.00;;;8.97;;
249;SDS011;109;19.806;-70.704;2024-01-30T03:47:45;10.63;;;8.07;;
249;SDS011;109;19.806;-70.704;2024-01-30T03:50:18;15.47;;;9.40;;
249;SDS011;109;19.806;-70.704;2024-01-30T03:52:44;15.70;;;8.10;;
249;SDS011;109;19.806;-70.704;2024-01-30T03:55:17;18.90;;;8.90;;
249;SDS011;109;19.806;-70.704;2024-01-30T03:57:43;13.27;;;9.33;;
249;SDS011;109;19.806;-70.704;2024-01-30T04:00:16;17.07;;;9.50;;
249;SDS011;109;19.806;-70.704;2024-01-30T04:02:42;18.37;;;10.17;;
249;SDS011;109;19.806;-70.704;2024-01-30T04:05:15;16.10;;;9.67;;
249;SDS011;109;19.806;-70.704;2024-01-30T04:07:41;19.67;;;10.03;;
249;SDS011;109;19.806;-70.704;2024-01-30T04:10:16;15.20;;;9.43;;
249;SDS011;109;19.806;-70.704;2024-01-30T04:12:42;12.53;;;8.47;;
249;SDS011;109;19.806;-70.704;2024-01-30T04:15:15;15.63;;;10.17;;
249;SDS011;109;19.806;-70.704;2024-01-30T04:17:42;20.47;;;9.90;;
249;SDS011;109;19.806;-70.704;2024-01-30T04:20:15;18.17;;;9.73;;
249;SDS011;109;19.806;-70.704;2024-01-30T04:22:44;17.90;;;10.67;;
249;SDS011;109;19.806;-70.704;2024-01-30T04:25:18;21.70;;;10.63;;
249;SDS011;109;19.806;-70.704;2024-01-30T04:27:44;17.97;;;10.47;;
249;SDS011;109;19.806;-70.704;2024-01-30T04:30:17;21.27;;;11.30;;
249;SDS011;109;19.806;-70.704;2024-01-30T04:32:57;17.40;;;11.43;;
249;SDS011;109;19.806;-70.704;2024-01-30T04:35:23;21.13;;;11.20;;
249;SDS011;109;19.806;-70.704;2024-01-30T04:37:57;20.43;;;11.50;;
249;SDS011;109;19.806;-70.704;2024-01-30T04:40:23;17.03;;;11.37;;
249;SDS011;109;19.806;-70.704;2024-01-30T04:42:56;14.23;;;10.93;;
249;SDS011;109;19.806;-70.704;2024-01-30T04:45:22;18.80;;;11.60;;
249;SDS011;109;19.806;-70.704;2024-01-30T04:47:55;17.73;;;12.00;;
249;SDS011;109;19.806;-70.704;2024-01-30T04:50:21;21.43;;;12.03;;
249;SDS011;109;19.806;-70.704;2024-01-30T04:52:55;20.77;;;12.03;;
249;SDS011;109;19.806;-70.704;2024-01-30T04:55:21;19.93;;;12.00;;
249;SDS011;109;19.806;-70.704;2024-01-30T04:57:54;29.13;;;12.80;;
249;SDS011;109;19.806;-70.704;2024-01-30T05:00:20;16.03;;;11.23;;
249;SDS011;109;19.806;-70.704;2024-01-30T05:02:54;22.30;;;12.03;;
249;SDS011;109;19.806;-70.704;2024-01-30T05:05:21;16.37;;;10.93;;
249;SDS011;109;19.806;-70.704;2024-01-30T05:07:54;24.17;;;11.50;;
249;SDS011;109;19.806;-70.704;2024-01-30T05:10:20;24.77;;;12.57;;
249;SDS011;109;19.806;-70.704;2024-01-30T05:12:53;16.40;;;11.20;;
249;SDS011;109;19.806;-70.704;2024-01-30T05:15:19;20.20;;;11.50;;
249;SDS011;109;19.806;-70.704;2024-01-30T05:17:52;26.13;;;12.77;;
249;SDS011;109;19.806;-70.704;2024-01-30T05:20:19;17.60;;;11.57;;
249;SDS011;109;19.806;-70.704;2024-01-30T05:22:52;19.57;;;12.57;;
249;SDS011;109;19.806;-70.704;2024-01-30T05:25:18;19.00;;;11.80;;
249;SDS011;109;19.806;-70.704;2024-01-30T05:27:51;17.40;;;11.80;;
249;SDS011;109;19.806;-70.704;2024-01-30T05:30:17;17.80;;;11.70;;
249;SDS011;109;19.806;-70.704;2024-01-30T05:32:56;26.03;;;11.10;;
249;SDS011;109;19.806;-70.704;2024-01-30T05:35:30;16.90;;;10.30;;
249;SDS011;109;19.806;-70.704;2024-01-30T05:37:56;17.50;;;10.47;;
249;SDS011;109;19.806;-70.704;2024-01-30T05:40:30;20.57;;;12.10;;
249;SDS011;109;19.806;-70.704;2024-01-30T05:42:56;19.40;;;11.10;;
249;SDS011;109;19.806;-70.704;2024-01-30T05:45:34;24.40;;;11.57;;
249;SDS011;109;19.806;-70.704;2024-01-30T05:48:01;16.77;;;11.77;;
249;SDS011;109;19.806;-70.704;2024-01-30T05:50:34;20.77;;;11.30;;
249;SDS011;109;19.806;-70.704;2024-01-30T05:53:00;29.77;;;10.30;;
249;SDS011;109;19.806;-70.704;2024-01-30T05:55:33;26.27;;;11.17;;
249;SDS011;109;19.806;-70.704;2024-01-30T05:57:59;26.53;;;12.90;;
249;SDS011;109;19.806;-70.704;2024-01-30T06:00:32;17.67;;;10.70;;
249;SDS011;109;19.806;-70.704;2024-01-30T06:02:58;18.17;;;11.07;;
249;SDS011;109;19.806;-70.704;2024-01-30T06:05:31;15.37;;;11.00;;
249;SDS011;109;19.806;-70.704;2024-01-30T06:07:57;25.13;;;11.40;;
249;SDS011;109;19.806;-70.704;2024-01-30T06:10:30;15.77;;;10.60;;
249;SDS011;109;19.806;-70.704;2024-01-30T06:12:56;19.40;;;10.87;;
249;SDS011;109;19.806;-70.704;2024-01-30T06:15:29;20.00;;;10.73;;
249;SDS011;109;19.806;-70.704;2024-01-30T06:17:55;24.10;;;11.00;;
249;SDS011;109;19.806;-70.704;2024-01-30T06:20:28;21.33;;;10.80;;
249;SDS011;109;19.806;-70.704;2024-01-30T06:22:54;16.43;;;10.37;;
249;SDS011;109;19.806;-70.704;2024-01-30T06:25:27;17.23;;;10.23;;
249;SDS011;109;19.806;-70.704;2024-01-30T06:27:53;23.23;;;11.30;;
249;SDS011;109;19.806;-70.704;2024-01-30T06:30:34;18.83;;;10.33;;
249;SDS011;109;19.806;-70.704;2024-01-30T06:33:14;16.20;;;10.37;;
249;SDS011;109;19.806;-70.704;2024-01-30T06:35:40;19.60;;;9.77;;
249;SDS011;109;19.806;-70.704;2024-01-30T06:38:14;16.70;;;10.03;;
249;SDS011;109;19.806;-70.704;2024-01-30T06:40:41;22.20;;;10.47;;
249;SDS011;109;19.806;-70.704;2024-01-30T06:43:14;19.77;;;9.77;;
249;SDS011;109;19.806;-70.704;2024-01-30T06:45:40;13.57;;;9.70;;
249;SDS011;109;19.806;-70.704;2024-01-30T06:48:14;19.33;;;9.37;;
249;SDS011;109;19.806;-70.704;2024-01-30T06:50:40;18.53;;;9.40;;
249;SDS011;109;19.806;-70.704;2024-01-30T06:53:13;17.00;;;9.60;;
249;SDS011;109;19.806;-70.704;2024-01-30T06:55:39;17.97;;;8.90;;
249;SDS011;109;19.806;-70.704;2024-01-30T06:58:12;16.40;;;9.40;;
249;SDS011;109;19.806;-70.704;2024-01-30T07:00:38;12.20;;;7.97;;
249;SDS011;109;19.806;-70.704;2024-01-30T07:03:12;15.10;;;8.20;;
249;SDS011;109;19.806;-70.704;2024-01-30T07:05:38;9.50;;;8.03;;
249;SDS011;109;19.806;-70.704;2024-01-30T07:08:11;13.10;;;7.30;;
249;SDS011;109;19.806;-70.704;2024-01-30T07:10:37;12.80;;;6.80;;
249;SDS011;109;19.806;-70.704;2024-01-30T07:13:10;10.40;;;6.70;;
249;SDS011;109;19.806;-70.704;2024-01-30T07:15:37;11.43;;;7.97;;
249;SDS011;109;19.806;-70.704;2024-01-30T07:18:11;15.63;;;7.50;;
249;SDS011;109;19.806;-70.704;2024-01-30T07:20:39;15.80;;;7.70;;
249;SDS011;109;19.806;-70.704;2024-01-30T07:23:18;11.10;;;6.90;;
249;SDS011;109;19.806;-70.704;2024-01-30T07:25:44;12.30;;;6.90;;
249;SDS011;109;19.806;-70.704;2024-01-30T07:28:18;13.83;;;6.90;;
249;SDS011;109;19.806;-70.704;2024-01-30T07:30:45;14.50;;;6.70;;
249;SDS011;109;19.806;-70.704;2024-01-30T07:33:18;13.50;;;7.20;;
249;SDS011;109;19.806;-70.704;2024-01-30T07:35:45;15.57;;;7.17;;
249;SDS011;109;19.806;-70.704;2024-01-30T07:38:18;14.83;;;6.50;;
249;SDS011;109;19.806;-70.704;2024-01-30T07:40:45;10.87;;;6.17;;
249;SDS011;109;19.806;-70.704;2024-01-30T07:43:18;13.43;;;6.37;;
249;SDS011;109;19.806;-70.704;2024-01-30T07:45:45;13.40;;;6.30;;
249;SDS011;109;19.806;-70.704;2024-01-30T07:48:18;14.90;;;6.23;;
249;SDS011;109;19.806;-70.704;2024-01-30T07:50:44;12.27;;;6.00;;
249;SDS011;109;19.806;-70.704;2024-01-30T07:53:17;12.40;;;6.40;;
249;SDS011;109;19.806;-70.704;2024-01-30T07:55:43;11.33;;;6.30;;
249;SDS011;109;19.806;-70.704;2024-01-30T07:58:18;15.37;;;6.60;;
249;SDS011;109;19.806;-70.704;2024-01-30T08:00:44;8.43;;;5.60;;
249;SDS011;109;19.806;-70.704;2024-01-30T08:03:18;11.80;;;6.20;;
249;SDS011;109;19.806;-70.704;2024-01-30T08:05:44;13.40;;;7.07;;
249;SDS011;109;19.806;-70.704;2024-01-30T08:08:17;14.97;;;7.00;;
249;SDS011;109;19.806;-70.704;2024-01-30T08:10:43;16.60;;;7.67;;
249;SDS011;109;19.806;-70.704;2024-01-30T08:13:16;9.93;;;7.13;;
249;SDS011;109;19.806;-70.704;2024-01-30T08:15:42;14.00;;;7.47;;
249;SDS011;109;19.806;-70.704;2024-01-30T08:18:15;16.30;;;8.77;;
249;SDS011;109;19.806;-70.704;2024-01-30T08:20:41;11.13;;;8.90;;
249;SDS011;109;19.806;-70.704;2024-01-30T08:23:14;14.90;;;9.43;;
249;SDS011;109;19.806;-70.704;2024-01-30T08:25:40;13.33;;;9.07;;
249;SDS011;109;19.806;-70.704;2024-01-30T08:28:13;23.13;;;10.40;;
249;SDS011;109;19.806;-70.704;2024-01-30T08:30:39;15.00;;;10.00;;
249;SDS011;109;19.806;-70.704;2024-01-30T08:33:27;26.90;;;9.97;;
249;SDS011;109;19.806;-70.704;2024-01-30T08:36:00;19.43;;;9.40;;
249;SDS011;109;19.806;-70.704;2024-01-30T08:38:26;18.87;;;9.50;;
249;SDS011;109;19.806;-70.704;2024-01-30T08:40:59;20.17;;;9.30;;
249;SDS011;109;19.806;-70.704;2024-01-30T08:43:25;17.13;;;10.30;;
249;SDS011;109;19.806;-70.704;2024-01-30T08:46:01;27.03;;;9.73;;
249;SDS011;109;19.806;-70.704;2024-01-30T08:48:28;20.07;;;9.87;;
249;SDS011;109;19.806;-70.704;2024-01-30T08:51:01;13.30;;;8.80;;
249;SDS011;109;19.806;-70.704;2024-01-30T08:53:27;17.87;;;8.90;;
249;SDS011;109;19.806;-70.704;2024-01-30T08:56:00;18.23;;;9.57;;
249;SDS011;109;19.806;-70.704;2024-01-30T08:58:27;15.50;;;9.67;;
249;SDS011;109;19.806;-70.704;2024-01-30T09:01:00;16.40;;;8.97;;
249;SDS011;109;19.806;-70.704;2024-01-30T09:03:27;27.57;;;11.33;;
249;SDS011;109;19.806;-70.704;2024-01-30T09:06:00;19.87;;;9.60;;
249;SDS011;109;19.806;-70.704;2024-01-30T09:08:26;18.90;;;9.00;;
249;SDS011;109;19.806;-70.704;2024-01-30T09:11:00;14.87;;;9.30;;
249;SDS011;109;19.806;-70.704;2024-01-30T09:13:27;14.73;;;8.37;;
249;SDS011;109;19.806;-70.704;2024-01-30T09:16:00;17.17;;;8.43;;
249;SDS011;109;19.806;-70.704;2024-01-30T09:18:26;17.83;;;9.67;;
249;SDS011;109;19.806;-70.704;2024-01-30T09:20:59;12.53;;;8.70;;
249;SDS011;109;19.806;-70.704;2024-01-30T09:23:28;19.23;;;8.83;;
249;SDS011;109;19.806;-70.704;2024-01-30T09:26:02;15.17;;;8.83;;
249;SDS011;109;19.806;-70.704;2024-01-30T09:28:28;20.07;;;9.90;;
249;SDS011;109;19.806;-70.704;2024-01-30T09:31:02;16.27;;;10.00;;
249;SDS011;109;19.806;-70.704;2024-01-30T09:33:42;14.47;;;9.00;;
249;SDS011;109;19.806;-70.704;2024-01-30T09:36:09;23.27;;;9.73;;
249;SDS011;109;19.806;-70.704;2024-01-30T09:38:42;14.90;;;9.40;;
249;SDS011;109;19.806;-70.704;2024-01-30T09:41:09;18.43;;;8.50;;
249;SDS011;109;19.806;-70.704;2024-01-30T09:43:47;20.50;;;8.47;;
249;SDS011;109;19.806;-70.704;2024-01-30T09:46:14;20.10;;;9.67;;
249;SDS011;109;19.806;-70.704;2024-01-30T09:48:50;20.53;;;9.60;;
249;SDS011;109;19.806;-70.704;2024-01-30T09:51:17;24.80;;;9.17;;
249;SDS011;109;19.806;-70.704;2024-01-30T09:53:51;16.23;;;8.97;;
249;SDS011;109;19.806;-70.704;2024-01-30T09:56:19;19.60;;;9.00;;
249;SDS011;109;19.806;-70.704;2024-01-30T09:58:54;19.73;;;8.90;;
249;SDS011;109;19.806;-70.704;2024-01-30T10:01:20;17.43;;;8.60;;
249;SDS011;109;19.806;-70.704;2024-01-30T10:03:54;20.37;;;9.40;;
249;SDS011;109;19.806;-70.704;2024-01-30T10:06:21;12.57;;;8.30;;
249;SDS011;109;19.806;-70.704;2024-01-30T10:08:57;13.97;;;9.03;;
249;SDS011;109;19.806;-70.704;2024-01-30T10:11:24;13.67;;;8.70;;
249;SDS011;109;19.806;-70.704;2024-01-30T10:13:57;21.27;;;8.90;;
249;SDS011;109;19.806;-70.704;2024-01-30T10:16:23;17.77;;;7.90;;
249;SDS011;109;19.806;-70.704;2024-01-30T10:18:57;23.10;;;8.33;;
249;SDS011;109;19.806;-70.704;2024-01-30T10:21:23;20.20;;;8.73;;
249;SDS011;109;19.806;-70.704;2024-01-30T10:23:57;20.97;;;7.17;;
249;SDS011;109;19.806;-70.704;2024-01-30T10:26:23;31.03;;;7.80;;
249;SDS011;109;19.806;-70.704;2024-01-30T10:29:03;16.20;;;6.17;;
249;SDS011;109;19.806;-70.704;2024-01-30T10:31:42;13.30;;;5.27;;
249;SDS011;109;19.806;-70.704;2024-01-30T10:34:08;19.97;;;5.57;;
249;SDS011;109;19.806;-70.704;2024-01-30T10:36:41;11.20;;;5.20;;
249;SDS011;109;19.806;-70.704;2024-01-30T10:39:19;22.57;;;7.17;;
249;SDS011;109;19.806;-70.704;2024-01-30T10:41:47;24.00;;;7.87;;
249;SDS011;109;19.806;-70.704;2024-01-30T10:44:20;19.80;;;5.70;;
249;SDS011;109;19.806;-70.704;2024-01-30T10:46:50;12.47;;;5.90;;
249;SDS011;109;19.806;-70.704;2024-01-30T10:49:22;8.50;;;5.13;;
249;SDS011;109;19.806;-70.704;2024-01-30T10:51:50;17.10;;;6.20;;
249;SDS011;109;19.806;-70.704;2024-01-30T10:54:18;12.87;;;5.90;;
249;SDS011;109;19.806;-70.704;2024-01-30T10:56:45;21.37;;;7.60;;
249;SDS011;109;19.806;-70.704;2024-01-30T10:59:12;17.10;;;7.47;;
249;SDS011;109;19.806;-70.704;2024-01-30T11:01:40;22.07;;;7.67;;
249;SDS011;109;19.806;-70.704;2024-01-30T11:04:07;22.73;;;8.43;;
249;SDS011;109;19.806;-70.704;2024-01-30T11:06:40;22.27;;;8.03;;
249;SDS011;109;19.806;-70.704;2024-01-30T11:09:10;26.07;;;7.57;;
249;SDS011;109;19.806;-70.704;2024-01-30T11:14:26;20.10;;;9.23;;
249;SDS011;109;19.806;-70.704;2024-01-30T11:16:58;20.73;;;7.67;;
249;SDS011;109;19.806;-70.704;2024-01-30T11:19:26;52.80;;;11.67;;
249;SDS011;109;19.806;-70.704;2024-01-30T11:21:56;39.60;;;9.83;;
249;SDS011;109;19.806;-70.704;2024-01-30T11:24:23;24.40;;;8.77;;
249;SDS011;109;19.806;-70.704;2024-01-30T11:26:59;26.43;;;8.87;;
249;SDS011;109;19.806;-70.704;2024-01-30T11:29:27;23.50;;;8.40;;
249;SDS011;109;19.806;-70.704;2024-01-30T11:31:55;23.73;;;8.40;;
249;SDS011;109;19.806;-70.704;2024-01-30T11:34:22;20.70;;;9.87;;
249;SDS011;109;19.806;-70.704;2024-01-30T11:36:53;18.47;;;7.47;;
249;SDS011;109;19.806;-70.704;2024-01-30T11:39:26;17.17;;;7.40;;
249;SDS011;109;19.806;-70.704;2024-01-30T11:41:55;20.90;;;8.37;;
249;SDS011;109;19.806;-70.704;2024-01-30T11:44:22;33.83;;;10.43;;
249;SDS011;109;19.806;-70.704;2024-01-30T11:46:49;35.77;;;9.33;;
249;SDS011;109;19.806;-70.704;2024-01-30T11:49:17;26.93;;;10.37;;
249;SDS011;109;19.806;-70.704;2024-01-30T11:51:47;32.07;;;10.40;;
249;SDS011;109;19.806;-70.704;2024-01-30T11:54:15;38.03;;;10.30;;
249;SDS011;109;19.806;-70.704;2024-01-30T11:56:42;30.30;;;10.40;;
249;SDS011;109;19.806;-70.704;2024-01-30T11:59:09;21.70;;;9.80;;
249;SDS011;109;19.806;-70.704;2024-01-30T12:01:36;19.07;;;9.87;;
249;SDS011;109;19.806;-70.704;2024-01-30T12:04:02;28.53;;;9.57;;
249;SDS011;109;19.806;-70.704;2024-01-30T12:06:34;29.83;;;10.97;;
249;SDS011;109;19.806;-70.704;2024-01-30T12:09:01;31.67;;;9.63;;
249;SDS011;109;19.806;-70.704;2024-01-30T12:11:45;23.87;;;8.57;;
249;SDS011;109;19.806;-70.704;2024-01-30T12:14:12;24.90;;;8.50;;
249;SDS011;109;19.806;-70.704;2024-01-30T12:16:39;15.47;;;8.10;;
249;SDS011;109;19.806;-70.704;2024-01-30T12:19:07;18.17;;;8.37;;
249;SDS011;109;19.806;-70.704;2024-01-30T12:21:33;22.40;;;8.97;;
249;SDS011;109;19.806;-70.704;2024-01-30T12:24:00;20.57;;;9.50;;
249;SDS011;109;19.806;-70.704;2024-01-30T12:26:28;16.37;;;8.67;;
249;SDS011;109;19.806;-70.704;2024-01-30T12:28:55;16.17;;;8.93;;
249;SDS011;109;19.806;-70.704;2024-01-30T12:31:27;27.00;;;9.60;;
249;SDS011;109;19.806;-70.704;2024-01-30T12:33:54;19.43;;;8.10;;
249;SDS011;109;19.806;-70.704;2024-01-30T12:36:23;16.70;;;6.90;;
249;SDS011;109;19.806;-70.704;2024-01-30T12:38:50;9.53;;;4.63;;
249;SDS011;109;19.806;-70.704;2024-01-30T12:41:16;9.73;;;4.33;;
249;SDS011;109;19.806;-70.704;2024-01-30T12:43:44;5.93;;;3.83;;
249;SDS011;109;19.806;-70.704;2024-01-30T12:46:11;8.07;;;4.37;;
249;SDS011;109;19.806;-70.704;2024-01-30T12:48:37;8.17;;;4.50;;
249;SDS011;109;19.806;-70.704;2024-01-30T12:51:04;8.90;;;3.80;;
249;SDS011;109;19.806;-70.704;2024-01-30T12:53:31;12.60;;;4.97;;
249;SDS011;109;19.806;-70.704;2024-01-30T12:55:57;6.10;;;3.77;;
249;SDS011;109;19.806;-70.704;2024-01-30T12:58:24;7.53;;;4.60;;
249;SDS011;109;19.806;-70.704;2024-01-30T13:00:50;14.23;;;5.00;;
249;SDS011;109;19.806;-70.704;2024-01-30T13:03:16;11.47;;;4.80;;
249;SDS011;109;19.806;-70.704;2024-01-30T13:05:43;6.80;;;5.20;;
249;SDS011;109;19.806;-70.704;2024-01-30T13:08:09;13.33;;;7.40;;
249;SDS011;109;19.806;-70.704;2024-01-30T13:10:36;16.00;;;8.67;;
249;SDS011;109;19.806;-70.704;2024-01-30T13:13:02;14.47;;;8.60;;
249;SDS011;109;19.806;-70.704;2024-01-30T13:15:28;11.90;;;7.70;;
249;SDS011;109;19.806;-70.704;2024-01-30T13:17:55;13.47;;;8.87;;
249;SDS011;109;19.806;-70.704;2024-01-30T13:20:21;18.00;;;9.07;;
249;SDS011;109;19.806;-70.704;2024-01-30T13:22:48;10.53;;;8.77;;
249;SDS011;109;19.806;-70.704;2024-01-30T13:25:15;11.53;;;7.70;;
249;SDS011;109;19.806;-70.704;2024-01-30T13:27:42;13.43;;;8.73;;
249;SDS011;109;19.806;-70.704;2024-01-30T13:30:09;15.57;;;9.00;;
249;SDS011;109;19.806;-70.704;2024-01-30T13:32:36;14.03;;;9.17;;
249;SDS011;109;19.806;-70.704;2024-01-30T13:35:04;10.90;;;9.43;;
249;SDS011;109;19.806;-70.704;2024-01-30T13:37:30;14.90;;;9.30;;
249;SDS011;109;19.806;-70.704;2024-01-30T13:39:57;12.33;;;9.33;;
249;SDS011;109;19.806;-70.704;2024-01-30T13:42:23;14.93;;;9.73;;
249;SDS011;109;19.806;-70.704;2024-01-30T13:44:49;17.50;;;9.00;;
249;SDS011;109;19.806;-70.704;2024-01-30T13:47:16;16.60;;;9.20;;
249;SDS011;109;19.806;-70.704;2024-01-30T13:49:44;18.73;;;9.27;;
249;SDS011;109;19.806;-70.704;2024-01-30T13:52:10;13.83;;;9.37;;
249;SDS011;109;19.806;-70.704;2024-01-30T13:54:37;15.70;;;8.60;;
249;SDS011;109;19.806;-70.704;2024-01-30T13:57:03;12.83;;;8.83;;
249;SDS011;109;19.806;-70.704;2024-01-30T13:59:30;11.77;;;9.10;;
249;SDS011;109;19.806;-70.704;2024-01-30T14:01:56;14.57;;;9.20;;
249;SDS011;109;19.806;-70.704;2024-01-30T14:04:23;12.03;;;9.10;;
249;SDS011;109;19.806;-70.704;2024-01-30T14:06:49;12.03;;;9.20;;
249;SDS011;109;19.806;-70.704;2024-01-30T14:09:15;13.63;;;9.70;;
249;SDS011;109;19.806;-70.704;2024-01-30T14:11:42;13.43;;;9.63;;
249;SDS011;109;19.806;-70.704;2024-01-30T14:14:09;15.63;;;10.73;;
249;SDS011;109;19.806;-70.704;2024-01-30T14:16:35;14.13;;;9.50;;
249;SDS011;109;19.806;-70.704;2024-01-30T14:19:01;15.57;;;8.97;;
249;SDS011;109;19.806;-70.704;2024-01-30T14:21:28;13.17;;;8.07;;
249;SDS011;109;19.806;-70.704;2024-01-30T14:23:54;14.80;;;10.70;;
249;SDS011;109;19.806;-70.704;2024-01-30T14:26:21;15.00;;;10.37;;
249;SDS011;109;19.806;-70.704;2024-01-30T14:28:47;11.77;;;10.23;;
249;SDS011;109;19.806;-70.704;2024-01-30T14:31:13;18.00;;;9.93;;
249;SDS011;109;19.806;-70.704;2024-01-30T14:33:40;14.90;;;9.33;;
249;SDS011;109;19.806;-70.704;2024-01-30T14:36:06;9.80;;;7.97;;
249;SDS011;109;19.806;-70.704;2024-01-30T14:38:34;10.43;;;7.10;;
249;SDS011;109;19.806;-70.704;2024-01-30T14:41:00;10.33;;;7.90;;
249;SDS011;109;19.806;-70.704;2024-01-30T14:43:27;10.00;;;6.90;;
249;SDS011;109;19.806;-70.704;2024-01-30T14:45:53;9.40;;;7.17;;
249;SDS011;109;19.806;-70.704;2024-01-30T14:48:20;9.63;;;7.57;;
249;SDS011;109;19.806;-70.704;2024-01-30T14:50:46;9.83;;;7.50;;
249;SDS011;109;19.806;-70.704;2024-01-30T14:53:13;9.87;;;7.20;;
249;SDS011;109;19.806;-70.704;2024-01-30T14:55:39;10.40;;;7.13;;
249;SDS011;109;19.806;-70.704;2024-01-30T14:58:05;10.47;;;7.27;;
249;SDS011;109;19.806;-70.704;2024-01-30T15:00:32;8.87;;;7.07;;
249;SDS011;109;19.806;-70.704;2024-01-30T15:02:58;10.73;;;7.30;;
249;SDS011;109;19.806;-70.704;2024-01-30T15:05:25;10.43;;;6.87;;
249;SDS011;109;19.806;-70.704;2024-01-30T15:07:51;9.70;;;6.80;;
249;SDS011;109;19.806;-70.704;2024-01-30T15:10:18;9.90;;;7.07;;
249;SDS011;109;19.806;-70.704;2024-01-30T15:12:44;8.50;;;7.50;;
249;SDS011;109;19.806;-70.704;2024-01-30T15:15:10;8.97;;;6.53;;